sensor_id;sensor_type;location;lat;lon;timestamp;temperature;humidity
11152;DHT22;5630;49.342;10.802;2023-02-12T00:02:16;4.80;99.90
11152;DHT22;5630;49.342;10.802;2023-02-12T00:04:41;4.80;99.90
11152;DHT22;5630;49.342;10.802;2023-02-12T00:07:07;4.80;99.90
11152;DHT22;5630;49.342;10.802;2023-02-12T00:09:33;4.70;99.90
11152;DHT22;5630;49.342;10.802;2023-02-12T00:11:58;4.70;99.90
11152;DHT22;5630;49.342;10.802;2023-02-12T00:14:24;4.80;99.90
11152;DHT22;5630;49.342;10.802;2023-02-12T00:16:50;4.70;99.90
11152;DHT22;5630;49.342;10.802;2023-02-12T00:19:15;4.80;99.90
11152;DHT22;5630;49.342;10.802;2023-02-12T00:21:41;4.80;99.90
11152;DHT22;5630;49.342;10.802;2023-02-12T00:24:06;4.80;99.90
11152;DHT22;5630;49.342;10.802;2023-02-12T00:26:32;4.80;99.90
11152;DHT22;5630;49.342;10.802;2023-02-12T00:28:58;4.80;99.90
11152;DHT22;5630;49.342;10.802;2023-02-12T00:31:26;4.80;99.90
11152;DHT22;5630;49.342;10.802;2023-02-12T00:33:52;4.80;99.90
11152;DHT22;5630;49.342;10.802;2023-02-12T00:36:19;4.80;99.90
11152;DHT22;5630;49.342;10.802;2023-02-12T00:38:45;4.80;99.90
11152;DHT22;5630;49.342;10.802;2023-02-12T00:41:11;4.80;99.90
11152;DHT22;5630;49.342;10.802;2023-02-12T00:43:37;4.80;99.90
11152;DHT22;5630;49.342;10.802;2023-02-12T00:46:03;4.80;99.90
11152;DHT22;5630;49.342;10.802;2023-02-12T00:48:29;4.90;99.90
11152;DHT22;5630;49.342;10.802;2023-02-12T00:50:55;4.90;99.90
11152;DHT22;5630;49.342;10.802;2023-02-12T00:53:21;4.90;99.90
11152;DHT22;5630;49.342;10.802;2023-02-12T00:55:46;4.90;99.90
11152;DHT22;5630;49.342;10.802;2023-02-12T00:58:12;4.80;99.90
11152;DHT22;5630;49.342;10.802;2023-02-12T01:00:38;4.80;99.90
11152;DHT22;5630;49.342;10.802;2023-02-12T01:03:04;4.80;99.90
11152;DHT22;5630;49.342;10.802;2023-02-12T01:05:30;4.80;99.90
11152;DHT22;5630;49.342;10.802;2023-02-12T01:07:56;4.80;99.90
11152;DHT22;5630;49.342;10.802;2023-02-12T01:10:22;4.80;99.90
11152;DHT22;5630;49.342;10.802;2023-02-12T01:12:48;4.80;99.90
11152;DHT22;5630;49.342;10.802;2023-02-12T01:15:15;4.80;99.90
11152;DHT22;5630;49.342;10.802;2023-02-12T01:17:41;4.80;99.90
11152;DHT22;5630;49.342;10.802;2023-02-12T01:20:09;4.80;99.90
11152;DHT22;5630;49.342;10.802;2023-02-12T01:22:36;4.80;99.90
11152;DHT22;5630;49.342;10.802;2023-02-12T01:25:04;4.90;99.90
11152;DHT22;5630;49.342;10.802;2023-02-12T01:27:29;4.90;99.90
11152;DHT22;5630;49.342;10.802;2023-02-12T01:29:55;4.90;99.90
11152;DHT22;5630;49.342;10.802;2023-02-12T01:32:21;4.90;99.90
11152;DHT22;5630;49.342;10.802;2023-02-12T01:34:46;4.90;99.90
11152;DHT22;5630;49.342;10.802;2023-02-12T01:37:12;4.90;99.90
11152;DHT22;5630;49.342;10.802;2023-02-12T01:39:37;4.90;99.90
11152;DHT22;5630;49.342;10.802;2023-02-12T01:42:03;4.90;99.90
11152;DHT22;5630;49.342;10.802;2023-02-12T01:44:31;4.90;99.90
11152;DHT22;5630;49.342;10.802;2023-02-12T01:47:04;4.90;99.90
11152;DHT22;5630;49.342;10.802;2023-02-12T01:49:39;4.80;99.90
11152;DHT22;5630;49.342;10.802;2023-02-12T01:54:35;4.80;99.90
11152;DHT22;5630;49.342;10.802;2023-02-12T01:57:04;4.80;99.90
11152;DHT22;5630;49.342;10.802;2023-02-12T01:59:31;4.80;99.90
11152;DHT22;5630;49.342;10.802;2023-02-12T02:01:57;4.80;99.90
11152;DHT22;5630;49.342;10.802;2023-02-12T02:04:26;4.70;99.90
11152;DHT22;5630;49.342;10.802;2023-02-12T02:09:22;4.70;99.90
11152;DHT22;5630;49.342;10.802;2023-02-12T02:11:48;4.60;99.90
11152;DHT22;5630;49.342;10.802;2023-02-12T02:14:32;4.50;99.90
11152;DHT22;5630;49.342;10.802;2023-02-12T02:25:23;4.60;99.90
11152;DHT22;5630;49.342;10.802;2023-02-12T02:30:56;4.60;99.90
11152;DHT22;5630;49.342;10.802;2023-02-12T02:33:32;4.60;99.90
11152;DHT22;5630;49.342;10.802;2023-02-12T02:39:18;4.70;99.90
11152;DHT22;5630;49.342;10.802;2023-02-12T02:44:49;4.70;99.90
11152;DHT22;5630;49.342;10.802;2023-02-12T02:47:20;4.70;99.90
11152;DHT22;5630;49.342;10.802;2023-02-12T02:49:53;4.70;99.90
11152;DHT22;5630;49.342;10.802;2023-02-12T02:52:29;4.70;99.90
11152;DHT22;5630;49.342;10.802;2023-02-12T02:55:02;4.70;99.90
11152;DHT22;5630;49.342;10.802;2023-02-12T02:57:33;4.70;99.90
11152;DHT22;5630;49.342;10.802;2023-02-12T03:00:17;4.70;99.90
11152;DHT22;5630;49.342;10.802;2023-02-12T03:02:51;4.70;99.90
11152;DHT22;5630;49.342;10.802;2023-02-12T03:07:55;4.70;99.90
11152;DHT22;5630;49.342;10.802;2023-02-12T03:10:28;4.80;99.90
11152;DHT22;5630;49.342;10.802;2023-02-12T03:13:09;4.70;99.90
11152;DHT22;5630;49.342;10.802;2023-02-12T03:15:53;4.80;99.90
11152;DHT22;5630;49.342;10.802;2023-02-12T03:18:26;4.80;99.90
11152;DHT22;5630;49.342;10.802;2023-02-12T03:20:59;4.80;99.90
11152;DHT22;5630;49.342;10.802;2023-02-12T03:23:30;4.80;99.90
11152;DHT22;5630;49.342;10.802;2023-02-12T03:26:03;4.80;99.90
11152;DHT22;5630;49.342;10.802;2023-02-12T03:28:35;4.80;99.90
11152;DHT22;5630;49.342;10.802;2023-02-12T03:31:20;4.80;99.90
11152;DHT22;5630;49.342;10.802;2023-02-12T03:33:53;4.80;99.90
11152;DHT22;5630;49.342;10.802;2023-02-12T03:38:56;4.80;99.90
11152;DHT22;5630;49.342;10.802;2023-02-12T03:41:36;4.80;99.90
11152;DHT22;5630;49.342;10.802;2023-02-12T03:44:22;4.80;99.90
11152;DHT22;5630;49.342;10.802;2023-02-12T03:47:20;4.70;99.90
11152;DHT22;5630;49.342;10.802;2023-02-12T03:50:10;4.70;99.90
11152;DHT22;5630;49.342;10.802;2023-02-12T03:52:38;4.70;99.90
11152;DHT22;5630;49.342;10.802;2023-02-12T03:55:04;4.70;99.90
11152;DHT22;5630;49.342;10.802;2023-02-12T03:57:33;4.70;99.90
11152;DHT22;5630;49.342;10.802;2023-02-12T04:00:05;4.70;99.90
11152;DHT22;5630;49.342;10.802;2023-02-12T04:02:32;4.60;99.90
11152;DHT22;5630;49.342;10.802;2023-02-12T04:05:04;4.60;99.90
11152;DHT22;5630;49.342;10.802;2023-02-12T04:07:30;4.60;99.90
11152;DHT22;5630;49.342;10.802;2023-02-12T04:09:55;4.70;99.90
11152;DHT22;5630;49.342;10.802;2023-02-12T04:12:38;4.60;99.90
11152;DHT22;5630;49.342;10.802;2023-02-12T04:15:30;4.70;99.90
11152;DHT22;5630;49.342;10.802;2023-02-12T04:18:16;4.70;99.90
11152;DHT22;5630;49.342;10.802;2023-02-12T04:29:41;4.70;99.90
11152;DHT22;5630;49.342;10.802;2023-02-12T04:32:20;4.70;99.90
11152;DHT22;5630;49.342;10.802;2023-02-12T04:35:03;4.70;99.90
11152;DHT22;5630;49.342;10.802;2023-02-12T04:37:42;4.70;99.90
11152;DHT22;5630;49.342;10.802;2023-02-12T04:40:12;4.70;99.90
11152;DHT22;5630;49.342;10.802;2023-02-12T04:42:43;4.70;99.90
11152;DHT22;5630;49.342;10.802;2023-02-12T04:45:14;4.70;99.90
11152;DHT22;5630;49.342;10.802;2023-02-12T04:47:40;4.70;99.90
11152;DHT22;5630;49.342;10.802;2023-02-12T04:50:07;4.60;99.90
11152;DHT22;5630;49.342;10.802;2023-02-12T04:52:33;4.60;99.90
11152;DHT22;5630;49.342;10.802;2023-02-12T04:54:58;4.60;99.90
11152;DHT22;5630;49.342;10.802;2023-02-12T04:57:24;4.70;99.90
11152;DHT22;5630;49.342;10.802;2023-02-12T04:59:49;4.60;99.90
11152;DHT22;5630;49.342;10.802;2023-02-12T05:02:15;4.60;99.90
11152;DHT22;5630;49.342;10.802;2023-02-12T05:04:40;4.50;99.90
11152;DHT22;5630;49.342;10.802;2023-02-12T05:07:06;4.50;99.90
11152;DHT22;5630;49.342;10.802;2023-02-12T05:09:31;4.50;99.90
11152;DHT22;5630;49.342;10.802;2023-02-12T05:11:57;4.50;99.90
11152;DHT22;5630;49.342;10.802;2023-02-12T05:14:24;4.50;99.90
11152;DHT22;5630;49.342;10.802;2023-02-12T05:16:50;4.50;99.90
11152;DHT22;5630;49.342;10.802;2023-02-12T05:19:15;4.50;99.90
11152;DHT22;5630;49.342;10.802;2023-02-12T05:21:41;4.50;99.90
11152;DHT22;5630;49.342;10.802;2023-02-12T05:24:07;4.50;99.90
11152;DHT22;5630;49.342;10.802;2023-02-12T05:26:33;4.60;99.90
11152;DHT22;5630;49.342;10.802;2023-02-12T05:28:59;4.60;99.90
11152;DHT22;5630;49.342;10.802;2023-02-12T05:31:24;4.60;99.90
11152;DHT22;5630;49.342;10.802;2023-02-12T05:33:50;4.60;99.90
11152;DHT22;5630;49.342;10.802;2023-02-12T05:36:18;4.60;99.90
11152;DHT22;5630;49.342;10.802;2023-02-12T05:38:44;4.60;99.90
11152;DHT22;5630;49.342;10.802;2023-02-12T05:41:18;4.60;99.90
11152;DHT22;5630;49.342;10.802;2023-02-12T05:43:44;4.60;99.90
11152;DHT22;5630;49.342;10.802;2023-02-12T05:46:11;4.60;99.90
11152;DHT22;5630;49.342;10.802;2023-02-12T05:48:37;4.60;99.90
11152;DHT22;5630;49.342;10.802;2023-02-12T05:51:04;4.60;99.90
11152;DHT22;5630;49.342;10.802;2023-02-12T05:53:30;4.60;99.90
11152;DHT22;5630;49.342;10.802;2023-02-12T05:56:06;4.50;99.90
11152;DHT22;5630;49.342;10.802;2023-02-12T05:58:32;4.50;99.90
11152;DHT22;5630;49.342;10.802;2023-02-12T06:00:57;4.50;99.90
11152;DHT22;5630;49.342;10.802;2023-02-12T06:03:23;4.40;99.90
11152;DHT22;5630;49.342;10.802;2023-02-12T06:05:51;4.40;99.90
11152;DHT22;5630;49.342;10.802;2023-02-12T06:08:17;4.40;99.90
11152;DHT22;5630;49.342;10.802;2023-02-12T06:10:43;4.50;99.90
11152;DHT22;5630;49.342;10.802;2023-02-12T06:13:08;4.50;99.90
11152;DHT22;5630;49.342;10.802;2023-02-12T06:15:37;4.50;99.90
11152;DHT22;5630;49.342;10.802;2023-02-12T06:18:03;4.50;99.90
11152;DHT22;5630;49.342;10.802;2023-02-12T06:20:29;4.50;99.90
11152;DHT22;5630;49.342;10.802;2023-02-12T06:22:54;4.50;99.90
11152;DHT22;5630;49.342;10.802;2023-02-12T06:25:20;4.50;99.90
11152;DHT22;5630;49.342;10.802;2023-02-12T06:27:45;4.50;99.90
11152;DHT22;5630;49.342;10.802;2023-02-12T06:30:11;4.50;99.90
11152;DHT22;5630;49.342;10.802;2023-02-12T06:32:37;4.50;99.90
11152;DHT22;5630;49.342;10.802;2023-02-12T06:35:03;4.50;99.90
11152;DHT22;5630;49.342;10.802;2023-02-12T06:37:29;4.60;99.90
11152;DHT22;5630;49.342;10.802;2023-02-12T06:39:54;4.50;99.90
11152;DHT22;5630;49.342;10.802;2023-02-12T06:42:20;4.50;99.90
11152;DHT22;5630;49.342;10.802;2023-02-12T06:44:45;4.50;99.90
11152;DHT22;5630;49.342;10.802;2023-02-12T06:47:12;4.60;99.90
11152;DHT22;5630;49.342;10.802;2023-02-12T06:49:38;4.50;99.90
11152;DHT22;5630;49.342;10.802;2023-02-12T06:52:03;4.50;99.90
11152;DHT22;5630;49.342;10.802;2023-02-12T06:54:29;4.50;99.90
11152;DHT22;5630;49.342;10.802;2023-02-12T06:56:54;4.60;99.90
11152;DHT22;5630;49.342;10.802;2023-02-12T06:59:20;4.60;99.90
11152;DHT22;5630;49.342;10.802;2023-02-12T07:01:45;4.60;99.90
11152;DHT22;5630;49.342;10.802;2023-02-12T07:04:11;4.60;99.90
11152;DHT22;5630;49.342;10.802;2023-02-12T07:06:37;4.60;99.90
11152;DHT22;5630;49.342;10.802;2023-02-12T07:09:03;4.60;99.90
11152;DHT22;5630;49.342;10.802;2023-02-12T07:11:31;4.60;99.90
11152;DHT22;5630;49.342;10.802;2023-02-12T07:13:57;4.60;99.90
11152;DHT22;5630;49.342;10.802;2023-02-12T07:16:23;4.60;99.90
11152;DHT22;5630;49.342;10.802;2023-02-12T07:18:48;4.60;99.90
11152;DHT22;5630;49.342;10.802;2023-02-12T07:21:15;4.70;99.90
11152;DHT22;5630;49.342;10.802;2023-02-12T07:23:44;4.70;99.90
11152;DHT22;5630;49.342;10.802;2023-02-12T07:26:11;4.70;99.90
11152;DHT22;5630;49.342;10.802;2023-02-12T07:28:37;4.70;99.90
11152;DHT22;5630;49.342;10.802;2023-02-12T07:31:40;4.70;99.90
11152;DHT22;5630;49.342;10.802;2023-02-12T07:33:59;4.80;99.90
11152;DHT22;5630;49.342;10.802;2023-02-12T07:36:27;4.80;99.90
11152;DHT22;5630;49.342;10.802;2023-02-12T07:38:54;4.90;99.90
11152;DHT22;5630;49.342;10.802;2023-02-12T07:41:22;4.90;99.90
11152;DHT22;5630;49.342;10.802;2023-02-12T07:43:53;4.90;99.90
11152;DHT22;5630;49.342;10.802;2023-02-12T07:46:24;4.90;99.90
11152;DHT22;5630;49.342;10.802;2023-02-12T07:48:54;4.90;99.90
11152;DHT22;5630;49.342;10.802;2023-02-12T07:51:20;4.90;99.90
11152;DHT22;5630;49.342;10.802;2023-02-12T07:53:47;5.00;99.90
11152;DHT22;5630;49.342;10.802;2023-02-12T07:56:18;5.00;99.90
11152;DHT22;5630;49.342;10.802;2023-02-12T07:58:45;6.20;99.90
11152;DHT22;5630;49.342;10.802;2023-02-12T08:01:24;7.60;99.90
11152;DHT22;5630;49.342;10.802;2023-02-12T08:03:51;8.40;99.90
11152;DHT22;5630;49.342;10.802;2023-02-12T08:06:20;9.20;99.90
11152;DHT22;5630;49.342;10.802;2023-02-12T08:08:47;9.40;99.90
11152;DHT22;5630;49.342;10.802;2023-02-12T08:11:14;9.00;99.90
11152;DHT22;5630;49.342;10.802;2023-02-12T08:16:15;7.90;99.90
11152;DHT22;5630;49.342;10.802;2023-02-12T08:21:10;7.30;99.90
11152;DHT22;5630;49.342;10.802;2023-02-12T08:23:36;7.20;99.90
11152;DHT22;5630;49.342;10.802;2023-02-12T08:26:26;7.00;99.90
11152;DHT22;5630;49.342;10.802;2023-02-12T08:29:05;6.70;99.90
11152;DHT22;5630;49.342;10.802;2023-02-12T08:31:33;6.60;99.90
11152;DHT22;5630;49.342;10.802;2023-02-12T08:34:00;6.30;99.90
11152;DHT22;5630;49.342;10.802;2023-02-12T08:36:28;6.30;99.90
11152;DHT22;5630;49.342;10.802;2023-02-12T08:38:57;6.20;99.90
11152;DHT22;5630;49.342;10.802;2023-02-12T08:41:26;6.20;99.90
11152;DHT22;5630;49.342;10.802;2023-02-12T08:43:55;6.20;99.90
11152;DHT22;5630;49.342;10.802;2023-02-12T08:46:23;6.20;99.90
11152;DHT22;5630;49.342;10.802;2023-02-12T08:48:52;6.10;99.90
11152;DHT22;5630;49.342;10.802;2023-02-12T08:51:20;6.10;99.90
11152;DHT22;5630;49.342;10.802;2023-02-12T08:53:50;6.10;99.90
11152;DHT22;5630;49.342;10.802;2023-02-12T08:56:17;6.10;99.90
11152;DHT22;5630;49.342;10.802;2023-02-12T08:58:43;6.10;99.90
11152;DHT22;5630;49.342;10.802;2023-02-12T09:01:11;6.20;99.90
11152;DHT22;5630;49.342;10.802;2023-02-12T09:03:37;6.10;99.90
11152;DHT22;5630;49.342;10.802;2023-02-12T09:06:04;6.20;99.90
11152;DHT22;5630;49.342;10.802;2023-02-12T09:08:30;6.30;99.90
11152;DHT22;5630;49.342;10.802;2023-02-12T09:10:55;6.40;99.90
11152;DHT22;5630;49.342;10.802;2023-02-12T09:13:21;6.40;99.90
11152;DHT22;5630;49.342;10.802;2023-02-12T09:15:46;6.50;99.90
11152;DHT22;5630;49.342;10.802;2023-02-12T09:18:13;6.50;99.90
11152;DHT22;5630;49.342;10.802;2023-02-12T09:20:41;6.60;99.90
11152;DHT22;5630;49.342;10.802;2023-02-12T09:23:08;6.60;99.90
11152;DHT22;5630;49.342;10.802;2023-02-12T09:25:38;6.60;99.90
11152;DHT22;5630;49.342;10.802;2023-02-12T09:28:04;6.60;99.90
11152;DHT22;5630;49.342;10.802;2023-02-12T09:30:30;6.60;99.90
11152;DHT22;5630;49.342;10.802;2023-02-12T09:32:56;6.60;99.90
11152;DHT22;5630;49.342;10.802;2023-02-12T09:35:22;6.60;99.90
11152;DHT22;5630;49.342;10.802;2023-02-12T09:37:47;6.60;99.90
11152;DHT22;5630;49.342;10.802;2023-02-12T09:40:22;6.50;99.90
11152;DHT22;5630;49.342;10.802;2023-02-12T09:42:59;6.50;99.90
11152;DHT22;5630;49.342;10.802;2023-02-12T09:45:29;6.50;99.90
11152;DHT22;5630;49.342;10.802;2023-02-12T09:50:55;6.60;99.90
11152;DHT22;5630;49.342;10.802;2023-02-12T09:53:24;6.60;99.90
11152;DHT22;5630;49.342;10.802;2023-02-12T09:55:52;6.60;99.90
11152;DHT22;5630;49.342;10.802;2023-02-12T09:58:34;6.70;99.90
11152;DHT22;5630;49.342;10.802;2023-02-12T10:01:14;6.70;99.90
11152;DHT22;5630;49.342;10.802;2023-02-12T10:03:40;6.80;99.90
11152;DHT22;5630;49.342;10.802;2023-02-12T10:06:19;6.80;99.90
11152;DHT22;5630;49.342;10.802;2023-02-12T10:23:43;6.90;99.90
11152;DHT22;5630;49.342;10.802;2023-02-12T10:28:24;7.00;99.90
11152;DHT22;5630;49.342;10.802;2023-02-12T10:31:03;7.00;99.90
11152;DHT22;5630;49.342;10.802;2023-02-12T10:33:40;7.00;99.90
11152;DHT22;5630;49.342;10.802;2023-02-12T10:36:38;7.00;99.90
11152;DHT22;5630;49.342;10.802;2023-02-12T10:41:40;7.00;99.90
11152;DHT22;5630;49.342;10.802;2023-02-12T10:44:09;6.90;99.90
11152;DHT22;5630;49.342;10.802;2023-02-12T10:46:36;6.90;99.90
11152;DHT22;5630;49.342;10.802;2023-02-12T10:49:02;6.90;99.90
11152;DHT22;5630;49.342;10.802;2023-02-12T10:51:44;6.90;99.90
11152;DHT22;5630;49.342;10.802;2023-02-12T10:54:41;7.00;99.90
11152;DHT22;5630;49.342;10.802;2023-02-12T10:59:35;8.10;99.90
11152;DHT22;5630;49.342;10.802;2023-02-12T11:04:29;9.80;99.90
11152;DHT22;5630;49.342;10.802;2023-02-12T11:09:35;11.00;99.90
11152;DHT22;5630;49.342;10.802;2023-02-12T11:14:51;10.00;99.90
11152;DHT22;5630;49.342;10.802;2023-02-12T11:17:35;9.60;99.90
11152;DHT22;5630;49.342;10.802;2023-02-12T11:22:34;8.90;99.90
11152;DHT22;5630;49.342;10.802;2023-02-12T11:25:07;8.50;99.90
11152;DHT22;5630;49.342;10.802;2023-02-12T11:27:38;8.40;99.90
11152;DHT22;5630;49.342;10.802;2023-02-12T11:32:37;8.10;99.90
11152;DHT22;5630;49.342;10.802;2023-02-12T11:35:13;8.00;99.90
11152;DHT22;5630;49.342;10.802;2023-02-12T11:37:43;7.90;99.90
11152;DHT22;5630;49.342;10.802;2023-02-12T11:40:19;7.80;99.90
11152;DHT22;5630;49.342;10.802;2023-02-12T11:42:49;7.70;99.90
11152;DHT22;5630;49.342;10.802;2023-02-12T11:45:18;7.80;99.90
11152;DHT22;5630;49.342;10.802;2023-02-12T11:47:44;7.80;99.90
11152;DHT22;5630;49.342;10.802;2023-02-12T11:50:29;7.90;99.90
11152;DHT22;5630;49.342;10.802;2023-02-12T11:52:59;7.70;99.90
11152;DHT22;5630;49.342;10.802;2023-02-12T11:55:29;7.70;99.90
11152;DHT22;5630;49.342;10.802;2023-02-12T11:58:13;7.80;99.90
11152;DHT22;5630;49.342;10.802;2023-02-12T12:00:53;7.70;99.90
11152;DHT22;5630;49.342;10.802;2023-02-12T12:05:54;7.70;99.90
11152;DHT22;5630;49.342;10.802;2023-02-12T12:11:02;7.80;99.90
11152;DHT22;5630;49.342;10.802;2023-02-12T12:13:46;7.80;99.90
11152;DHT22;5630;49.342;10.802;2023-02-12T12:16:28;7.80;99.90
11152;DHT22;5630;49.342;10.802;2023-02-12T12:19:29;7.70;99.90
11152;DHT22;5630;49.342;10.802;2023-02-12T12:22:30;7.80;99.90
11152;DHT22;5630;49.342;10.802;2023-02-12T12:25:28;7.80;99.90
11152;DHT22;5630;49.342;10.802;2023-02-12T12:28:19;7.80;99.90
11152;DHT22;5630;49.342;10.802;2023-02-12T12:31:05;7.80;99.90
11152;DHT22;5630;49.342;10.802;2023-02-12T12:33:50;7.80;99.90
11152;DHT22;5630;49.342;10.802;2023-02-12T12:42:26;8.00;99.90
11152;DHT22;5630;49.342;10.802;2023-02-12T12:56:25;8.20;99.90
11152;DHT22;5630;49.342;10.802;2023-02-12T12:59:10;8.10;99.90
11152;DHT22;5630;49.342;10.802;2023-02-12T13:04:50;8.10;99.90
11152;DHT22;5630;49.342;10.802;2023-02-12T13:10:33;8.10;99.90
11152;DHT22;5630;49.342;10.802;2023-02-12T13:15:53;8.00;99.90
11152;DHT22;5630;49.342;10.802;2023-02-12T13:27:13;8.00;99.90
11152;DHT22;5630;49.342;10.802;2023-02-12T13:29:57;8.00;99.90
11152;DHT22;5630;49.342;10.802;2023-02-12T13:32:44;8.00;99.90
11152;DHT22;5630;49.342;10.802;2023-02-12T13:35:18;8.00;99.90
11152;DHT22;5630;49.342;10.802;2023-02-12T13:37:48;8.00;99.90
11152;DHT22;5630;49.342;10.802;2023-02-12T13:40:18;8.10;99.90
11152;DHT22;5630;49.342;10.802;2023-02-12T13:45:50;8.00;99.90
11152;DHT22;5630;49.342;10.802;2023-02-12T13:51:39;8.00;99.90
11152;DHT22;5630;49.342;10.802;2023-02-12T13:56:50;8.10;99.90
11152;DHT22;5630;49.342;10.802;2023-02-12T14:04:44;8.10;99.90
11152;DHT22;5630;49.342;10.802;2023-02-12T14:07:13;8.20;99.90
11152;DHT22;5630;49.342;10.802;2023-02-12T14:09:58;8.20;99.90
11152;DHT22;5630;49.342;10.802;2023-02-12T14:22:59;8.40;99.90
11152;DHT22;5630;49.342;10.802;2023-02-12T14:25:40;8.50;99.90
11152;DHT22;5630;49.342;10.802;2023-02-12T14:28:40;8.50;99.90
11152;DHT22;5630;49.342;10.802;2023-02-12T14:33:51;8.50;99.90
11152;DHT22;5630;49.342;10.802;2023-02-12T14:41:44;8.50;99.90
11152;DHT22;5630;49.342;10.802;2023-02-12T14:49:53;8.40;99.90
11152;DHT22;5630;49.342;10.802;2023-02-12T14:52:22;8.40;99.90
11152;DHT22;5630;49.342;10.802;2023-02-12T14:55:46;8.40;99.90
11152;DHT22;5630;49.342;10.802;2023-02-12T14:58:16;8.30;99.90
11152;DHT22;5630;49.342;10.802;2023-02-12T15:00:45;8.30;99.90
11152;DHT22;5630;49.342;10.802;2023-02-12T15:05:48;8.20;99.90
11152;DHT22;5630;49.342;10.802;2023-02-12T15:08:28;8.10;99.90
11152;DHT22;5630;49.342;10.802;2023-02-12T15:14:03;8.00;99.90
11152;DHT22;5630;49.342;10.802;2023-02-12T15:19:17;7.80;99.90
11152;DHT22;5630;49.342;10.802;2023-02-12T15:21:45;7.70;99.90
11152;DHT22;5630;49.342;10.802;2023-02-12T15:24:12;7.70;99.90
11152;DHT22;5630;49.342;10.802;2023-02-12T15:26:48;7.60;99.90
11152;DHT22;5630;49.342;10.802;2023-02-12T15:29:21;7.50;99.90
11152;DHT22;5630;49.342;10.802;2023-02-12T15:31:57;7.50;99.90
11152;DHT22;5630;49.342;10.802;2023-02-12T15:34:26;7.50;99.90
11152;DHT22;5630;49.342;10.802;2023-02-12T15:36:59;7.40;99.90
11152;DHT22;5630;49.342;10.802;2023-02-12T15:39:26;7.40;99.90
11152;DHT22;5630;49.342;10.802;2023-02-12T15:41:52;7.30;99.90
11152;DHT22;5630;49.342;10.802;2023-02-12T15:44:27;7.30;99.90
11152;DHT22;5630;49.342;10.802;2023-02-12T15:46:59;7.30;99.90
11152;DHT22;5630;49.342;10.802;2023-02-12T15:49:36;7.30;99.90
11152;DHT22;5630;49.342;10.802;2023-02-12T15:54:34;7.20;99.90
11152;DHT22;5630;49.342;10.802;2023-02-12T15:57:00;7.20;99.90
11152;DHT22;5630;49.342;10.802;2023-02-12T15:59:27;7.10;99.90
11152;DHT22;5630;49.342;10.802;2023-02-12T16:02:00;7.10;99.90
11152;DHT22;5630;49.342;10.802;2023-02-12T16:04:33;7.00;99.90
11152;DHT22;5630;49.342;10.802;2023-02-12T16:07:01;7.00;99.90
11152;DHT22;5630;49.342;10.802;2023-02-12T16:09:32;7.00;99.90
11152;DHT22;5630;49.342;10.802;2023-02-12T16:12:00;6.90;99.90
11152;DHT22;5630;49.342;10.802;2023-02-12T16:14:41;6.90;99.90
11152;DHT22;5630;49.342;10.802;2023-02-12T16:17:37;6.90;99.90
11152;DHT22;5630;49.342;10.802;2023-02-12T16:22:46;6.80;99.90
11152;DHT22;5630;49.342;10.802;2023-02-12T16:25:18;6.80;99.90
11152;DHT22;5630;49.342;10.802;2023-02-12T16:27:58;6.70;99.90
11152;DHT22;5630;49.342;10.802;2023-02-12T16:33:04;6.60;99.90
11152;DHT22;5630;49.342;10.802;2023-02-12T16:35:32;6.60;99.90
11152;DHT22;5630;49.342;10.802;2023-02-12T16:43:35;6.40;99.90
11152;DHT22;5630;49.342;10.802;2023-02-12T16:46:04;6.40;99.90
11152;DHT22;5630;49.342;10.802;2023-02-12T16:48:31;6.30;99.90
11152;DHT22;5630;49.342;10.802;2023-02-12T16:51:01;6.30;99.90
11152;DHT22;5630;49.342;10.802;2023-02-12T16:53:32;6.20;99.90
11152;DHT22;5630;49.342;10.802;2023-02-12T16:56:00;6.20;99.90
11152;DHT22;5630;49.342;10.802;2023-02-12T16:58:26;6.10;99.90
11152;DHT22;5630;49.342;10.802;2023-02-12T17:00:54;6.00;99.90
11152;DHT22;5630;49.342;10.802;2023-02-12T17:35:33;5.90;99.90
11152;DHT22;5630;49.342;10.802;2023-02-12T17:37:58;5.30;99.90
11152;DHT22;5630;49.342;10.802;2023-02-12T17:40:24;5.20;99.90
11152;DHT22;5630;49.342;10.802;2023-02-12T17:42:49;5.20;99.90
11152;DHT22;5630;49.342;10.802;2023-02-12T17:45:15;5.10;99.90
11152;DHT22;5630;49.342;10.802;2023-02-12T17:47:41;5.10;99.90
11152;DHT22;5630;49.342;10.802;2023-02-12T17:50:12;5.00;99.90
11152;DHT22;5630;49.342;10.802;2023-02-12T17:52:38;5.00;99.90
11152;DHT22;5630;49.342;10.802;2023-02-12T17:55:04;4.90;99.90
11152;DHT22;5630;49.342;10.802;2023-02-12T17:57:30;4.90;99.90
11152;DHT22;5630;49.342;10.802;2023-02-12T17:59:56;4.90;99.90
11152;DHT22;5630;49.342;10.802;2023-02-12T18:02:22;4.80;99.90
11152;DHT22;5630;49.342;10.802;2023-02-12T18:04:47;4.80;99.90
11152;DHT22;5630;49.342;10.802;2023-02-12T18:07:13;4.80;99.90
11152;DHT22;5630;49.342;10.802;2023-02-12T18:09:38;4.70;99.90
11152;DHT22;5630;49.342;10.802;2023-02-12T18:12:04;4.70;99.90
11152;DHT22;5630;49.342;10.802;2023-02-12T18:14:30;4.60;99.90
11152;DHT22;5630;49.342;10.802;2023-02-12T18:16:56;4.60;99.90
11152;DHT22;5630;49.342;10.802;2023-02-12T18:19:23;4.50;99.90
11152;DHT22;5630;49.342;10.802;2023-02-12T18:21:49;4.40;99.90
11152;DHT22;5630;49.342;10.802;2023-02-12T18:24:14;4.40;99.90
11152;DHT22;5630;49.342;10.802;2023-02-12T18:26:40;4.40;99.90
11152;DHT22;5630;49.342;10.802;2023-02-12T18:29:05;4.40;99.90
11152;DHT22;5630;49.342;10.802;2023-02-12T18:31:31;4.40;99.90
11152;DHT22;5630;49.342;10.802;2023-02-12T18:33:57;4.30;99.90
11152;DHT22;5630;49.342;10.802;2023-02-12T18:36:23;4.30;99.90
11152;DHT22;5630;49.342;10.802;2023-02-12T18:38:50;4.30;99.90
11152;DHT22;5630;49.342;10.802;2023-02-12T18:41:23;4.20;99.90
11152;DHT22;5630;49.342;10.802;2023-02-12T18:43:49;4.20;99.90
11152;DHT22;5630;49.342;10.802;2023-02-12T18:46:20;4.20;99.90
11152;DHT22;5630;49.342;10.802;2023-02-12T18:48:46;4.10;99.90
11152;DHT22;5630;49.342;10.802;2023-02-12T18:51:17;4.10;99.90
11152;DHT22;5630;49.342;10.802;2023-02-12T18:53:43;4.00;99.90
11152;DHT22;5630;49.342;10.802;2023-02-12T18:56:11;4.00;99.90
11152;DHT22;5630;49.342;10.802;2023-02-12T18:58:37;3.90;99.90
11152;DHT22;5630;49.342;10.802;2023-02-12T19:01:17;3.90;99.90
11152;DHT22;5630;49.342;10.802;2023-02-12T19:03:44;3.90;99.90
11152;DHT22;5630;49.342;10.802;2023-02-12T19:06:10;3.80;99.90
11152;DHT22;5630;49.342;10.802;2023-02-12T19:08:36;3.80;99.90
11152;DHT22;5630;49.342;10.802;2023-02-12T19:11:01;3.80;99.90
11152;DHT22;5630;49.342;10.802;2023-02-12T19:13:27;3.80;99.90
11152;DHT22;5630;49.342;10.802;2023-02-12T19:15:53;3.80;99.90
11152;DHT22;5630;49.342;10.802;2023-02-12T19:18:18;3.70;99.90
11152;DHT22;5630;49.342;10.802;2023-02-12T19:20:44;3.70;99.90
11152;DHT22;5630;49.342;10.802;2023-02-12T19:23:10;3.70;99.90
11152;DHT22;5630;49.342;10.802;2023-02-12T19:25:37;3.60;99.90
11152;DHT22;5630;49.342;10.802;2023-02-12T19:28:16;3.60;99.90
11152;DHT22;5630;49.342;10.802;2023-02-12T19:33:07;3.60;99.90
11152;DHT22;5630;49.342;10.802;2023-02-12T19:37:59;3.50;99.90
11152;DHT22;5630;49.342;10.802;2023-02-12T19:40:26;3.50;99.90
11152;DHT22;5630;49.342;10.802;2023-02-12T19:42:51;3.50;99.90